sensor_id;sensor_type;location;lat;lon;timestamp;P1;durP1;ratioP1;P2;durP2;ratioP2
52342;SDS011;38277;51.972;4.624;2023-04-07T00:05:44;10.7;;;3.1;;
52342;SDS011;38277;51.972;4.624;2023-04-07T00:08:55;8.9;;;3.1;;
52342;SDS011;38277;51.972;4.624;2023-04-07T00:17:46;7.6;;;2.8;;
52342;SDS011;38277;51.972;4.624;2023-04-07T00:24:00;10.1;;;3.7;;
52342;SDS011;38277;51.972;4.624;2023-04-07T00:26:29;6.9;;;2.6;;
52342;SDS011;38277;51.972;4.624;2023-04-07T00:31:18;12.7;;;3.8;;
52342;SDS011;38277;51.972;4.624;2023-04-07T00:35:39;6.3;;;2.4;;
52342;SDS011;38277;51.972;4.624;2023-04-07T00:41:36;7.5;;;2.7;;
52342;SDS011;38277;51.972;4.624;2023-04-07T00:44:48;7.7;;;2.7;;
52342;SDS011;38277;51.972;4.624;2023-04-07T00:51:02;12.9;;;3.1;;
52342;SDS011;38277;51.972;4.624;2023-04-07T00:53:39;13.1;;;3.0;;
52342;SDS011;38277;51.972;4.624;2023-04-07T00:59:42;9.7;;;2.6;;
52342;SDS011;38277;51.972;4.624;2023-04-07T01:03:00;10.2;;;2.2;;
52342;SDS011;38277;51.972;4.624;2023-04-07T01:07:22;7.0;;;2.5;;
52342;SDS011;38277;51.972;4.624;2023-04-07T01:11:45;13.0;;;3.0;;
52342;SDS011;38277;51.972;4.624;2023-04-07T01:17:37;13.1;;;3.9;;
52342;SDS011;38277;51.972;4.624;2023-04-07T01:20:31;8.4;;;2.8;;
52342;SDS011;38277;51.972;4.624;2023-04-07T01:25:53;11.9;;;3.2;;
52342;SDS011;38277;51.972;4.624;2023-04-07T01:29:53;6.9;;;2.8;;
52342;SDS011;38277;51.972;4.624;2023-04-07T01:35:56;9.2;;;2.6;;
52342;SDS011;38277;51.972;4.624;2023-04-07T01:38:43;9.9;;;2.7;;
52342;SDS011;38277;51.972;4.624;2023-04-07T01:43:14;11.1;;;3.1;;
52342;SDS011;38277;51.972;4.624;2023-04-07T01:47:42;12.0;;;3.1;;
52342;SDS011;38277;51.972;4.624;2023-04-07T01:53:38;11.4;;;3.2;;
52342;SDS011;38277;51.972;4.624;2023-04-07T01:56:53;12.4;;;4.3;;
52342;SDS011;38277;51.972;4.624;2023-04-07T02:01:22;16.4;;;4.0;;
52342;SDS011;38277;51.972;4.624;2023-04-07T02:06:00;12.6;;;3.4;;
52342;SDS011;38277;51.972;4.624;2023-04-07T02:11:41;14.3;;;4.1;;
52342;SDS011;38277;51.972;4.624;2023-04-07T02:14:35;10.5;;;3.5;;
52342;SDS011;38277;51.972;4.624;2023-04-07T02:19:06;11.5;;;3.7;;
52342;SDS011;38277;51.972;4.624;2023-04-07T02:23:56;12.3;;;3.8;;
52342;SDS011;38277;51.972;4.624;2023-04-07T02:29:36;16.3;;;3.7;;
52342;SDS011;38277;51.972;4.624;2023-04-07T02:32:34;8.9;;;3.0;;
52342;SDS011;38277;51.972;4.624;2023-04-07T02:37:07;8.5;;;3.3;;
52342;SDS011;38277;51.972;4.624;2023-04-07T02:41:55;9.0;;;3.1;;
52342;SDS011;38277;51.972;4.624;2023-04-07T02:47:43;10.5;;;3.3;;
52342;SDS011;38277;51.972;4.624;2023-04-07T02:50:27;11.7;;;3.8;;
52342;SDS011;38277;51.972;4.624;2023-04-07T02:55:23;10.5;;;3.3;;
52342;SDS011;38277;51.972;4.624;2023-04-07T02:59:29;12.4;;;4.4;;
52342;SDS011;38277;51.972;4.624;2023-04-07T03:05:40;12.2;;;3.7;;
52342;SDS011;38277;51.972;4.624;2023-04-07T03:08:49;11.2;;;3.8;;
52342;SDS011;38277;51.972;4.624;2023-04-07T03:14:41;14.3;;;4.4;;
52342;SDS011;38277;51.972;4.624;2023-04-07T03:17:28;13.3;;;3.7;;
52342;SDS011;38277;51.972;4.624;2023-04-07T03:23:50;9.9;;;4.1;;
52342;SDS011;38277;51.972;4.624;2023-04-07T03:26:44;11.8;;;4.4;;
52342;SDS011;38277;51.972;4.624;2023-04-07T03:35:35;10.4;;;3.3;;
52342;SDS011;38277;51.972;4.624;2023-04-07T03:41:38;10.6;;;4.2;;
52342;SDS011;38277;51.972;4.624;2023-04-07T03:44:54;16.0;;;4.1;;
52342;SDS011;38277;51.972;4.624;2023-04-07T03:53:32;14.8;;;4.7;;
52342;SDS011;38277;51.972;4.624;2023-04-07T03:59:49;12.2;;;3.8;;
52342;SDS011;38277;51.972;4.624;2023-04-07T04:02:35;5.7;;;3.2;;
52342;SDS011;38277;51.972;4.624;2023-04-07T04:07:18;7.9;;;2.7;;
52342;SDS011;38277;51.972;4.624;2023-04-07T04:11:41;7.8;;;3.0;;
52342;SDS011;38277;51.972;4.624;2023-04-07T04:18:04;6.0;;;2.8;;
52342;SDS011;38277;51.972;4.624;2023-04-07T04:20:39;5.9;;;2.4;;
52342;SDS011;38277;51.972;4.624;2023-04-07T04:25:19;7.6;;;2.2;;
52342;SDS011;38277;51.972;4.624;2023-04-07T04:29:29;5.9;;;1.9;;
52342;SDS011;38277;51.972;4.624;2023-04-07T04:35:39;4.7;;;2.0;;
52342;SDS011;38277;51.972;4.624;2023-04-07T04:38:35;5.9;;;2.4;;
52342;SDS011;38277;51.972;4.624;2023-04-07T04:47:32;8.0;;;2.2;;
52342;SDS011;38277;51.972;4.624;2023-04-07T04:53:37;8.4;;;2.9;;
52342;SDS011;38277;51.972;4.624;2023-04-07T04:56:49;9.1;;;3.0;;
52342;SDS011;38277;51.972;4.624;2023-04-07T05:00:56;5.0;;;2.3;;
52342;SDS011;38277;51.972;4.624;2023-04-07T05:05:35;9.3;;;2.9;;
52342;SDS011;38277;51.972;4.624;2023-04-07T05:12:00;9.3;;;3.8;;
52342;SDS011;38277;51.972;4.624;2023-04-07T05:14:51;11.0;;;3.3;;
52342;SDS011;38277;51.972;4.624;2023-04-07T05:23:37;9.4;;;2.8;;
52342;SDS011;38277;51.972;4.624;2023-04-07T05:29:52;9.0;;;2.7;;
52342;SDS011;38277;51.972;4.624;2023-04-07T05:32:35;9.0;;;2.6;;
52342;SDS011;38277;51.972;4.624;2023-04-07T05:37:07;8.8;;;2.8;;
52342;SDS011;38277;51.972;4.624;2023-04-07T05:41:33;5.2;;;2.1;;
52342;SDS011;38277;51.972;4.624;2023-04-07T05:48:04;8.7;;;2.3;;
52342;SDS011;38277;51.972;4.624;2023-04-07T05:50:47;7.2;;;2.2;;
52342;SDS011;38277;51.972;4.624;2023-04-07T05:55:00;9.4;;;2.2;;
52342;SDS011;38277;51.972;4.624;2023-04-07T05:59:50;10.8;;;3.0;;
52342;SDS011;38277;51.972;4.624;2023-04-07T06:05:37;5.9;;;1.7;;
52342;SDS011;38277;51.972;4.624;2023-04-07T06:08:32;6.7;;;2.0;;
52342;SDS011;38277;51.972;4.624;2023-04-07T06:13:24;6.5;;;2.2;;
52342;SDS011;38277;51.972;4.624;2023-04-07T06:17:32;7.9;;;2.1;;
52342;SDS011;38277;51.972;4.624;2023-04-07T06:23:44;7.8;;;2.5;;
52342;SDS011;38277;51.972;4.624;2023-04-07T06:26:40;7.5;;;2.2;;
52342;SDS011;38277;51.972;4.624;2023-04-07T06:31:04;7.5;;;2.2;;
52342;SDS011;38277;51.972;4.624;2023-04-07T06:35:55;7.2;;;2.3;;
52342;SDS011;38277;51.972;4.624;2023-04-07T06:41:51;6.8;;;1.7;;
52342;SDS011;38277;51.972;4.624;2023-04-07T06:44:41;5.5;;;1.6;;
52342;SDS011;38277;51.972;4.624;2023-04-07T06:55:17;7.9;;;1.8;;
52342;SDS011;38277;51.972;4.624;2023-04-07T07:05:39;12.5;;;2.8;;
52342;SDS011;38277;51.972;4.624;2023-04-07T07:08:40;11.7;;;2.5;;
52342;SDS011;38277;51.972;4.624;2023-04-07T07:16:19;9.8;;;2.0;;
52342;SDS011;38277;51.972;4.624;2023-04-07T07:22:21;7.7;;;2.0;;
52342;SDS011;38277;51.972;4.624;2023-04-07T07:32:28;4.9;;;1.8;;
52342;SDS011;38277;51.972;4.624;2023-04-07T07:35:29;11.1;;;2.4;;
52342;SDS011;38277;51.972;4.624;2023-04-07T07:41:32;9.8;;;2.5;;
52342;SDS011;38277;51.972;4.624;2023-04-07T07:47:42;12.5;;;2.3;;
52342;SDS011;38277;51.972;4.624;2023-04-07T07:56:45;8.3;;;2.5;;
52342;SDS011;38277;51.972;4.624;2023-04-07T08:00:58;10.3;;;2.9;;
52342;SDS011;38277;51.972;4.624;2023-04-07T08:07:00;6.7;;;1.8;;
52342;SDS011;38277;51.972;4.624;2023-04-07T08:17:37;11.6;;;2.6;;
52342;SDS011;38277;51.972;4.624;2023-04-07T08:23:39;12.1;;;2.3;;
52342;SDS011;38277;51.972;4.624;2023-04-07T08:28:07;8.0;;;2.1;;
52342;SDS011;38277;51.972;4.624;2023-04-07T08:34:09;7.1;;;2.5;;
52342;SDS011;38277;51.972;4.624;2023-04-07T08:40:11;7.4;;;1.6;;
52342;SDS011;38277;51.972;4.624;2023-04-07T08:49:14;9.9;;;1.9;;
52342;SDS011;38277;51.972;4.624;2023-04-07T08:52:21;9.6;;;2.4;;
52342;SDS011;38277;51.972;4.624;2023-04-07T08:59:47;6.3;;;2.1;;
52342;SDS011;38277;51.972;4.624;2023-04-07T09:05:50;8.4;;;2.0;;
52342;SDS011;38277;51.972;4.624;2023-04-07T09:16:20;12.9;;;2.6;;
52342;SDS011;38277;51.972;4.624;2023-04-07T09:19:22;14.0;;;2.6;;
52342;SDS011;38277;51.972;4.624;2023-04-07T09:26:39;11.0;;;2.4;;
52342;SDS011;38277;51.972;4.624;2023-04-07T09:32:41;12.5;;;3.6;;
52342;SDS011;38277;51.972;4.624;2023-04-07T09:43:21;8.9;;;2.0;;
52342;SDS011;38277;51.972;4.624;2023-04-07T09:46:22;8.7;;;2.2;;
52342;SDS011;38277;51.972;4.624;2023-04-07T09:53:55;8.9;;;1.8;;
52342;SDS011;38277;51.972;4.624;2023-04-07T09:59:58;7.8;;;2.1;;
52342;SDS011;38277;51.972;4.624;2023-04-07T10:10:09;8.3;;;1.9;;
52342;SDS011;38277;51.972;4.624;2023-04-07T10:13:10;11.4;;;2.4;;
52342;SDS011;38277;51.972;4.624;2023-04-07T10:23:39;8.4;;;2.7;;
52342;SDS011;38277;51.972;4.624;2023-04-07T10:26:36;8.8;;;2.5;;
52342;SDS011;38277;51.972;4.624;2023-04-07T10:40:29;10.1;;;2.1;;
52342;SDS011;38277;51.972;4.624;2023-04-07T10:48:10;9.9;;;1.8;;
52342;SDS011;38277;51.972;4.624;2023-04-07T10:54:19;10.1;;;2.7;;
52342;SDS011;38277;51.972;4.624;2023-04-07T11:03:59;17.3;;;3.3;;
52342;SDS011;38277;51.972;4.624;2023-04-07T11:07:00;13.7;;;2.9;;
52342;SDS011;38277;51.972;4.624;2023-04-07T11:13:05;12.9;;;2.9;;
52342;SDS011;38277;51.972;4.624;2023-04-07T11:22:13;9.5;;;3.0;;
52342;SDS011;38277;51.972;4.624;2023-04-07T11:28:09;10.7;;;2.8;;
52342;SDS011;38277;51.972;4.624;2023-04-07T11:32:34;10.3;;;3.0;;
52342;SDS011;38277;51.972;4.624;2023-04-07T11:38:37;10.1;;;3.0;;
52342;SDS011;38277;51.972;4.624;2023-04-07T11:44:43;13.1;;;3.3;;
52342;SDS011;38277;51.972;4.624;2023-04-07T11:53:41;14.9;;;2.6;;
52342;SDS011;38277;51.972;4.624;2023-04-07T11:56:46;9.7;;;2.6;;
52342;SDS011;38277;51.972;4.624;2023-04-07T12:04:17;11.0;;;2.8;;
52342;SDS011;38277;51.972;4.624;2023-04-07T12:10:19;10.6;;;2.4;;
52342;SDS011;38277;51.972;4.624;2023-04-07T12:20:56;10.7;;;2.6;;
52342;SDS011;38277;51.972;4.624;2023-04-07T12:23:57;11.0;;;2.8;;
52342;SDS011;38277;51.972;4.624;2023-04-07T12:31:05;11.5;;;2.6;;
52342;SDS011;38277;51.972;4.624;2023-04-07T12:37:07;13.6;;;3.0;;
52342;SDS011;38277;51.972;4.624;2023-04-07T12:47:50;14.3;;;3.3;;
52342;SDS011;38277;51.972;4.624;2023-04-07T12:50:52;12.8;;;3.1;;
52342;SDS011;38277;51.972;4.624;2023-04-07T12:58:23;6.8;;;2.2;;
52342;SDS011;38277;51.972;4.624;2023-04-07T13:04:24;7.1;;;2.5;;
52342;SDS011;38277;51.972;4.624;2023-04-07T13:14:49;12.9;;;2.7;;
52342;SDS011;38277;51.972;4.624;2023-04-07T13:17:50;9.8;;;2.8;;
52342;SDS011;38277;51.972;4.624;2023-04-07T13:25:12;11.8;;;2.6;;
52342;SDS011;38277;51.972;4.624;2023-04-07T13:31:14;10.8;;;2.7;;
52342;SDS011;38277;51.972;4.624;2023-04-07T13:41:45;14.1;;;3.2;;
52342;SDS011;38277;51.972;4.624;2023-04-07T13:44:46;11.6;;;3.4;;
52342;SDS011;38277;51.972;4.624;2023-04-07T13:52:21;11.5;;;3.9;;
52342;SDS011;38277;51.972;4.624;2023-04-07T13:58:23;14.1;;;3.2;;
52342;SDS011;38277;51.972;4.624;2023-04-07T14:08:57;15.8;;;4.8;;
52342;SDS011;38277;51.972;4.624;2023-04-07T14:11:58;14.9;;;4.4;;
52342;SDS011;38277;51.972;4.624;2023-04-07T14:19:22;15.1;;;4.2;;
52342;SDS011;38277;51.972;4.624;2023-04-07T14:28:25;12.7;;;3.4;;
52342;SDS011;38277;51.972;4.624;2023-04-07T14:35:29;14.6;;;4.9;;
52342;SDS011;38277;51.972;4.624;2023-04-07T14:41:32;14.7;;;3.8;;
52342;SDS011;38277;51.972;4.624;2023-04-07T14:46:01;13.2;;;4.1;;
52342;SDS011;38277;51.972;4.624;2023-04-07T14:52:08;14.9;;;3.9;;
52342;SDS011;38277;51.972;4.624;2023-04-07T15:01:07;12.1;;;3.1;;
52342;SDS011;38277;51.972;4.624;2023-04-07T15:04:14;7.9;;;2.8;;
52342;SDS011;38277;51.972;4.624;2023-04-07T15:10:16;17.4;;;3.8;;
52342;SDS011;38277;51.972;4.624;2023-04-07T15:17:49;12.5;;;3.5;;
52342;SDS011;38277;51.972;4.624;2023-04-07T15:26:52;15.6;;;3.0;;
52342;SDS011;38277;51.972;4.624;2023-04-07T15:31:23;14.0;;;3.6;;
52342;SDS011;38277;51.972;4.624;2023-04-07T15:37:26;9.6;;;2.9;;
52342;SDS011;38277;51.972;4.624;2023-04-07T15:44:40;10.0;;;2.9;;
52342;SDS011;38277;51.972;4.624;2023-04-07T15:53:43;12.2;;;3.5;;
52342;SDS011;38277;51.972;4.624;2023-04-07T15:58:02;10.3;;;3.3;;
52342;SDS011;38277;51.972;4.624;2023-04-07T16:07:07;13.1;;;3.5;;
52342;SDS011;38277;51.972;4.624;2023-04-07T16:10:06;8.0;;;3.1;;
52342;SDS011;38277;51.972;4.624;2023-04-07T16:19:09;9.9;;;3.3;;
52342;SDS011;38277;51.972;4.624;2023-04-07T16:22:10;13.1;;;3.1;;
52342;SDS011;38277;51.972;4.624;2023-04-07T16:29:32;10.3;;;3.3;;
52342;SDS011;38277;51.972;4.624;2023-04-07T16:38:34;13.4;;;3.5;;
52342;SDS011;38277;51.972;4.624;2023-04-07T16:44:36;12.5;;;3.6;;
52342;SDS011;38277;51.972;4.624;2023-04-07T16:47:37;10.8;;;4.2;;
52342;SDS011;38277;51.972;4.624;2023-04-07T16:53:39;13.7;;;4.0;;
52342;SDS011;38277;51.972;4.624;2023-04-07T17:01:02;10.0;;;3.3;;
52342;SDS011;38277;51.972;4.624;2023-04-07T17:10:06;13.9;;;5.0;;
52342;SDS011;38277;51.972;4.624;2023-04-07T17:14:40;10.3;;;3.2;;
52342;SDS011;38277;51.972;4.624;2023-04-07T17:20:42;23.3;;;4.8;;
52342;SDS011;38277;51.972;4.624;2023-04-07T17:27:59;10.0;;;4.0;;
52342;SDS011;38277;51.972;4.624;2023-04-07T17:37:02;12.5;;;3.8;;
52342;SDS011;38277;51.972;4.624;2023-04-07T17:41:32;11.0;;;3.9;;
52342;SDS011;38277;51.972;4.624;2023-04-07T17:47:34;11.6;;;4.0;;
52342;SDS011;38277;51.972;4.624;2023-04-07T17:52:47;13.6;;;3.9;;
52342;SDS011;38277;51.972;4.624;2023-04-07T17:55:48;17.6;;;4.6;;
52342;SDS011;38277;51.972;4.624;2023-04-07T18:04:00;13.3;;;5.3;;
52342;SDS011;38277;51.972;4.624;2023-04-07T18:08:51;18.1;;;5.2;;
52342;SDS011;38277;51.972;4.624;2023-04-07T18:12:59;16.7;;;5.3;;
52342;SDS011;38277;51.972;4.624;2023-04-07T18:17:29;12.2;;;5.3;;
52342;SDS011;38277;51.972;4.624;2023-04-07T18:22:16;16.0;;;4.9;;
52342;SDS011;38277;51.972;4.624;2023-04-07T18:26:29;15.5;;;4.7;;
52342;SDS011;38277;51.972;4.624;2023-04-07T18:31:21;14.9;;;5.3;;
52342;SDS011;38277;51.972;4.624;2023-04-07T18:40:05;16.3;;;5.2;;
52342;SDS011;38277;51.972;4.624;2023-04-07T18:44:28;13.2;;;4.0;;
52342;SDS011;38277;51.972;4.624;2023-04-07T18:48:58;20.8;;;5.6;;
52342;SDS011;38277;51.972;4.624;2023-04-07T18:53:43;16.8;;;5.2;;
52342;SDS011;38277;51.972;4.624;2023-04-07T18:58:24;16.4;;;5.5;;
52342;SDS011;38277;51.972;4.624;2023-04-07T19:02:41;18.6;;;5.5;;
52342;SDS011;38277;51.972;4.624;2023-04-07T19:07:18;16.1;;;5.5;;
52342;SDS011;38277;51.972;4.624;2023-04-07T19:16:16;18.1;;;5.7;;
52342;SDS011;38277;51.972;4.624;2023-04-07T19:25:07;17.4;;;6.2;;
52342;SDS011;38277;51.972;4.624;2023-04-07T19:29:36;13.1;;;5.1;;
52342;SDS011;38277;51.972;4.624;2023-04-07T19:33:58;16.6;;;5.5;;
52342;SDS011;38277;51.972;4.624;2023-04-07T19:38:52;16.5;;;5.3;;
52342;SDS011;38277;51.972;4.624;2023-04-07T19:43:19;12.3;;;4.4;;
52342;SDS011;38277;51.972;4.624;2023-04-07T19:52:16;20.1;;;6.3;;
52342;SDS011;38277;51.972;4.624;2023-04-07T19:56:44;12.1;;;4.9;;
52342;SDS011;38277;51.972;4.624;2023-04-07T20:05:41;22.2;;;6.7;;
52342;SDS011;38277;51.972;4.624;2023-04-07T20:10:37;13.8;;;5.3;;
52342;SDS011;38277;51.972;4.624;2023-04-07T20:19:41;16.7;;;6.8;;
52342;SDS011;38277;51.972;4.624;2023-04-07T20:23:33;16.5;;;6.5;;
52342;SDS011;38277;51.972;4.624;2023-04-07T20:29:35;20.2;;;5.8;;
52342;SDS011;38277;51.972;4.624;2023-04-07T20:37:03;17.0;;;6.0;;
52342;SDS011;38277;51.972;4.624;2023-04-07T20:46:06;17.1;;;6.3;;
52342;SDS011;38277;51.972;4.624;2023-04-07T20:50:43;14.8;;;6.8;;
52342;SDS011;38277;51.972;4.624;2023-04-07T20:56:45;16.1;;;7.0;;
52342;SDS011;38277;51.972;4.624;2023-04-07T21:03:57;19.2;;;9.2;;
52342;SDS011;38277;51.972;4.624;2023-04-07T21:13:00;16.9;;;7.9;;
52342;SDS011;38277;51.972;4.624;2023-04-07T21:16:01;15.4;;;7.8;;
52342;SDS011;38277;51.972;4.624;2023-04-07T21:22:22;20.1;;;8.1;;
52342;SDS011;38277;51.972;4.624;2023-04-07T21:31:25;18.4;;;8.3;;
52342;SDS011;38277;51.972;4.624;2023-04-07T21:38:34;23.8;;;9.1;;
52342;SDS011;38277;51.972;4.624;2023-04-07T21:41:35;17.2;;;8.0;;
52342;SDS011;38277;51.972;4.624;2023-04-07T21:52:12;15.0;;;7.7;;
52342;SDS011;38277;51.972;4.624;2023-04-07T21:55:13;20.4;;;9.9;;
52342;SDS011;38277;51.972;4.624;2023-04-07T22:05:45;18.2;;;8.9;;
52342;SDS011;38277;51.972;4.624;2023-04-07T22:11:46;20.0;;;9.6;;
52342;SDS011;38277;51.972;4.624;2023-04-07T22:15:58;18.5;;;9.3;;
52342;SDS011;38277;51.972;4.624;2023-04-07T22:21:59;16.9;;;8.7;;
52342;SDS011;38277;51.972;4.624;2023-04-07T22:32:42;18.3;;;9.8;;
52342;SDS011;38277;51.972;4.624;2023-04-07T22:35:43;18.6;;;9.3;;
52342;SDS011;38277;51.972;4.624;2023-04-07T22:43:05;17.3;;;8.5;;
52342;SDS011;38277;51.972;4.624;2023-04-07T22:49:07;16.4;;;7.8;;
52342;SDS011;38277;51.972;4.624;2023-04-07T22:59:52;17.6;;;8.7;;
52342;SDS011;38277;51.972;4.624;2023-04-07T23:02:53;17.2;;;8.6;;
52342;SDS011;38277;51.972;4.624;2023-04-07T23:10:14;19.9;;;9.7;;
52342;SDS011;38277;51.972;4.624;2023-04-07T23:16:16;18.5;;;8.5;;
52342;SDS011;38277;51.972;4.624;2023-04-07T23:26:40;18.2;;;9.5;;
52342;SDS011;38277;51.972;4.624;2023-04-07T23:29:41;20.4;;;10.1;;
52342;SDS011;38277;51.972;4.624;2023-04-07T23:37:00;19.8;;;9.9;;
52342;SDS011;38277;51.972;4.624;2023-04-07T23:43:02;17.6;;;9.1;;
52342;SDS011;38277;51.972;4.624;2023-04-07T23:53:33;17.3;;;9.2;;
52342;SDS011;38277;51.972;4.624;2023-04-07T23:56:34;17.1;;;9.4;;
